createdAt,value
2022-10-29T00:00:01.659Z,11.79
2022-10-29T00:01:01.648Z,11.82
2022-10-29T00:02:01.717Z,11.77
2022-10-29T00:03:01.764Z,11.87
2022-10-29T00:04:01.607Z,11.78
2022-10-29T00:05:01.593Z,11.77
2022-10-29T00:06:01.587Z,11.77
2022-10-29T00:07:01.563Z,11.79
2022-10-29T00:08:01.549Z,11.75
2022-10-29T00:09:01.539Z,11.70
2022-10-29T00:10:01.527Z,11.72
2022-10-29T00:11:01.540Z,11.66
2022-10-29T00:12:01.501Z,11.63
2022-10-29T00:13:01.483Z,11.79
2022-10-29T00:14:01.467Z,11.69
2022-10-29T00:15:01.460Z,11.66
2022-10-29T00:16:01.441Z,11.69
2022-10-29T00:17:01.430Z,11.72
2022-10-29T00:18:01.420Z,11.66
2022-10-29T00:19:01.413Z,11.74
2022-10-29T00:20:01.429Z,11.74
2022-10-29T00:21:01.388Z,11.66
2022-10-29T00:22:01.364Z,11.67
2022-10-29T00:23:01.353Z,11.74
2022-10-29T00:24:01.337Z,11.59
2022-10-29T00:25:01.321Z,11.67
2022-10-29T00:26:01.314Z,11.67
2022-10-29T00:27:01.327Z,11.84
2022-10-29T00:28:01.285Z,11.74
2022-10-29T00:29:01.278Z,11.70
2022-10-29T00:30:01.253Z,11.70
2022-10-29T00:31:01.244Z,11.70
2022-10-29T00:32:01.279Z,11.64
2022-10-29T00:33:01.217Z,11.62
2022-10-29T00:34:01.203Z,11.72
2022-10-29T00:35:01.197Z,11.60
2022-10-29T00:36:01.175Z,11.51
2022-10-29T00:37:01.164Z,11.62
2022-10-29T00:38:01.143Z,11.46
2022-10-29T00:39:01.134Z,11.48
2022-10-29T00:40:01.119Z,11.51
2022-10-29T00:41:01.107Z,11.49
2022-10-29T00:42:01.099Z,11.45
2022-10-29T00:43:01.107Z,11.59
2022-10-29T00:44:01.074Z,11.64
2022-10-29T00:45:01.054Z,11.53
2022-10-29T00:46:01.041Z,11.54
2022-10-29T00:47:01.034Z,11.57
2022-10-29T00:48:01.014Z,11.53
2022-10-29T00:49:01.006Z,11.63
2022-10-29T00:50:00.992Z,11.56
2022-10-29T00:51:00.980Z,11.56
2022-10-29T00:52:00.956Z,11.51
2022-10-29T00:53:00.944Z,11.64
2022-10-29T00:54:00.931Z,11.45
2022-10-29T00:55:00.927Z,11.48
2022-10-29T00:56:00.903Z,11.51
2022-10-29T00:57:00.897Z,11.56
2022-10-29T00:58:00.881Z,11.56
2022-10-29T00:59:00.892Z,11.59
2022-10-29T01:00:00.855Z,11.54
2022-10-29T01:01:00.845Z,11.63
2022-10-29T01:02:01.018Z,11.62
2022-10-29T01:03:00.962Z,11.74
2022-10-29T01:04:00.797Z,11.60
2022-10-29T01:05:00.793Z,11.67
2022-10-29T01:06:00.783Z,11.72
2022-10-29T01:07:00.765Z,11.69
2022-10-29T01:08:00.751Z,11.64
2022-10-29T01:09:00.736Z,11.62
2022-10-29T01:10:00.721Z,11.57
2022-10-29T01:11:00.706Z,11.66
2022-10-29T01:12:00.695Z,11.66
2022-10-29T01:13:00.681Z,11.54
2022-10-29T01:14:00.665Z,11.53
2022-10-29T01:15:00.673Z,11.60
2022-10-29T01:16:00.638Z,11.63
2022-10-29T01:17:00.628Z,11.59
2022-10-29T01:18:00.608Z,11.60
2022-10-29T01:19:00.699Z,11.72
2022-10-29T01:20:00.581Z,11.54
2022-10-29T01:21:00.573Z,11.75
2022-10-29T01:22:00.558Z,11.70
2022-10-29T01:23:00.552Z,11.63
2022-10-29T01:24:00.530Z,11.82
2022-10-29T01:25:00.525Z,11.77
2022-10-29T01:26:00.503Z,11.74
2022-10-29T01:27:00.502Z,11.70
2022-10-29T01:28:00.478Z,11.79
2022-10-29T01:29:00.476Z,11.69
2022-10-29T01:30:00.451Z,11.81
2022-10-29T01:31:00.458Z,11.84
2022-10-29T01:32:00.422Z,11.69
2022-10-29T01:33:00.415Z,11.82
2022-10-29T01:34:00.398Z,11.74
2022-10-29T01:35:00.398Z,11.75
2022-10-29T01:36:00.375Z,11.77
2022-10-29T01:37:00.359Z,11.74
2022-10-29T01:38:00.339Z,11.81
2022-10-29T01:39:00.331Z,11.79
2022-10-29T01:40:00.313Z,11.88
2022-10-29T01:41:00.314Z,11.82
2022-10-29T01:42:00.295Z,11.85
2022-10-29T01:43:00.282Z,11.79
2022-10-29T01:44:00.269Z,11.88
2022-10-29T01:45:00.258Z,11.82
2022-10-29T01:46:00.233Z,11.84
2022-10-29T01:47:00.245Z,11.93
2022-10-29T01:48:00.208Z,11.79
2022-10-29T01:49:00.204Z,11.84
2022-10-29T01:50:00.290Z,11.85
2022-10-29T01:51:00.177Z,11.78
2022-10-29T01:52:00.158Z,11.90
2022-10-29T01:53:00.155Z,11.87
2022-10-29T01:54:00.132Z,11.82
2022-10-29T01:55:00.127Z,11.77
2022-10-29T01:56:00.106Z,11.79
2022-10-29T01:57:00.098Z,11.84
2022-10-29T01:58:00.100Z,11.96
2022-10-29T01:59:00.096Z,11.88
2022-10-29T02:00:00.054Z,11.75
2022-10-29T02:01:00.176Z,11.87
2022-10-29T02:02:00.116Z,11.81
2022-10-29T02:03:00.541Z,11.78
2022-10-29T02:04:00.006Z,11.75
2022-10-29T02:04:59.993Z,11.72
2022-10-29T02:05:59.977Z,11.81
2022-10-29T02:06:59.958Z,11.87
2022-10-29T02:07:59.950Z,11.78
2022-10-29T02:08:59.932Z,11.82
2022-10-29T02:09:59.922Z,11.78
2022-10-29T02:10:59.909Z,11.82
2022-10-29T02:11:59.892Z,11.79
2022-10-29T02:12:59.924Z,11.79
2022-10-29T02:13:59.870Z,11.87
2022-10-29T02:14:59.857Z,11.88
2022-10-29T02:15:59.839Z,11.79
2022-10-29T02:16:59.838Z,11.81
2022-10-29T02:17:59.811Z,11.82
2022-10-29T02:18:59.823Z,11.78
2022-10-29T02:19:59.788Z,11.88
2022-10-29T02:20:59.771Z,11.78
2022-10-29T02:21:59.754Z,11.78
2022-10-29T02:22:59.748Z,11.93
2022-10-29T02:23:59.733Z,11.78
2022-10-29T02:24:59.751Z,11.85
2022-10-29T02:25:59.708Z,11.85
2022-10-29T02:26:59.701Z,11.85
2022-10-29T02:27:59.684Z,11.88
2022-10-29T02:28:59.670Z,11.87
2022-10-29T02:29:59.646Z,11.88
2022-10-29T02:30:59.641Z,11.82
2022-10-29T02:31:59.620Z,11.96
2022-10-29T02:32:59.826Z,11.93
2022-10-29T02:33:59.597Z,11.85
2022-10-29T02:34:59.610Z,11.98
2022-10-29T02:35:59.570Z,12.08
2022-10-29T02:36:59.559Z,11.87
2022-10-29T02:37:59.543Z,11.90
2022-10-29T02:38:59.543Z,11.93
2022-10-29T02:39:59.515Z,12.05
2022-10-29T02:40:59.504Z,11.81
2022-10-29T02:41:59.487Z,11.88
2022-10-29T02:42:59.605Z,11.98
2022-10-29T02:43:59.460Z,12.04
2022-10-29T02:44:59.449Z,12.08
2022-10-29T02:45:59.437Z,12.15
2022-10-29T02:46:59.430Z,11.96
2022-10-29T02:47:59.648Z,12.03
2022-10-29T02:48:59.394Z,11.98
2022-10-29T02:49:59.387Z,12.08
2022-10-29T02:50:59.399Z,12.05
2022-10-29T02:51:59.354Z,12.03
2022-10-29T02:52:59.346Z,12.05
2022-10-29T02:53:59.328Z,12.05
2022-10-29T02:54:59.327Z,12.05
2022-10-29T02:55:59.311Z,12.16
2022-10-29T02:56:59.298Z,12.08
2022-10-29T02:57:59.437Z,12.21
2022-10-29T02:58:59.270Z,12.11
2022-10-29T02:59:59.254Z,12.08
2022-10-29T03:00:59.238Z,12.13
2022-10-29T03:01:59.310Z,12.12
2022-10-29T03:02:59.772Z,12.11
2022-10-29T03:03:59.201Z,12.03
2022-10-29T03:04:59.187Z,12.13
2022-10-29T03:05:59.169Z,12.01
2022-10-29T03:06:59.180Z,12.12
2022-10-29T03:07:59.147Z,12.13
2022-10-29T03:08:59.133Z,12.01
2022-10-29T03:09:59.130Z,12.03
2022-10-29T03:10:59.099Z,12.19
2022-10-29T03:11:59.100Z,12.00
2022-10-29T03:12:59.079Z,12.01
2022-10-29T03:13:59.076Z,12.07
2022-10-29T03:14:59.055Z,11.97
2022-10-29T03:15:59.046Z,12.04
2022-10-29T03:16:59.028Z,12.01
2022-10-29T03:17:59.159Z,11.98
2022-10-29T03:18:59.000Z,11.87
2022-10-29T03:19:58.986Z,11.97
2022-10-29T03:20:58.975Z,11.98
2022-10-29T03:21:58.958Z,12.00
2022-10-29T03:22:58.964Z,12.04
2022-10-29T03:23:58.942Z,12.03
2022-10-29T03:24:58.915Z,12.04
2022-10-29T03:25:58.907Z,11.96
2022-10-29T03:26:58.894Z,12.01
2022-10-29T03:27:59.114Z,11.93
2022-10-29T03:28:58.866Z,12.03
2022-10-29T03:29:58.861Z,12.03
2022-10-29T03:30:58.839Z,11.98
2022-10-29T03:31:58.831Z,12.00
2022-10-29T03:32:59.026Z,12.00
2022-10-29T03:33:58.802Z,11.87
2022-10-29T03:34:59.967Z,11.96
2022-10-29T03:35:58.967Z,11.96
2022-10-29T03:36:58.755Z,11.82
2022-10-29T03:37:58.752Z,11.88
2022-10-29T03:38:58.755Z,11.87
2022-10-29T03:39:58.729Z,11.87
2022-10-29T03:40:58.706Z,11.90
2022-10-29T03:41:58.699Z,11.97
2022-10-29T03:42:58.890Z,11.85
2022-10-29T03:43:58.672Z,11.85
2022-10-29T03:44:58.652Z,11.84
2022-10-29T03:45:58.646Z,11.82
2022-10-29T03:46:58.642Z,11.94
2022-10-29T03:47:58.765Z,11.81
2022-10-29T03:48:58.600Z,11.81
2022-10-29T03:49:58.587Z,11.88
2022-10-29T03:50:58.566Z,11.87
2022-10-29T03:51:58.562Z,11.94
2022-10-29T03:52:58.541Z,11.84
2022-10-29T03:53:58.537Z,11.88
2022-10-29T03:54:58.541Z,11.84
2022-10-29T03:55:58.511Z,12.00
2022-10-29T03:56:58.493Z,11.98
2022-10-29T03:57:58.822Z,11.88
2022-10-29T03:58:58.610Z,11.93
2022-10-29T03:59:58.456Z,12.00
2022-10-29T04:00:58.444Z,11.84
2022-10-29T04:01:58.554Z,12.04
2022-10-29T04:02:58.750Z,11.94
2022-10-29T04:03:58.402Z,11.97
2022-10-29T04:04:58.379Z,11.88
2022-10-29T04:05:58.368Z,11.96
2022-10-29T04:06:58.352Z,11.94
2022-10-29T04:07:58.347Z,12.03
2022-10-29T04:08:58.328Z,11.94
2022-10-29T04:09:58.327Z,12.00
2022-10-29T04:10:58.327Z,11.94
2022-10-29T04:11:58.296Z,11.98
2022-10-29T04:12:58.666Z,11.93
2022-10-29T04:13:58.267Z,11.97
2022-10-29T04:14:58.355Z,11.85
2022-10-29T04:15:58.245Z,11.88
2022-10-29T04:16:58.223Z,11.85
2022-10-29T04:17:58.718Z,11.94
2022-10-29T04:18:58.195Z,12.01
2022-10-29T04:19:58.194Z,11.97
2022-10-29T04:24:28.934Z,11.87
2022-10-29T04:28:58.066Z,11.84
2022-10-29T04:29:58.159Z,11.81
2022-10-29T04:30:58.037Z,11.81
2022-10-29T04:31:58.025Z,11.77
2022-10-29T04:32:58.391Z,11.74
2022-10-29T04:33:57.995Z,11.79
2022-10-29T04:34:57.985Z,11.66
2022-10-29T04:35:57.974Z,11.60
2022-10-29T04:36:57.957Z,11.62
2022-10-29T04:37:57.951Z,11.82
2022-10-29T04:38:57.931Z,11.75
2022-10-29T04:39:57.927Z,11.69
2022-10-29T04:40:57.900Z,11.66
2022-10-29T04:41:57.895Z,11.79
2022-10-29T04:42:58.170Z,11.67
2022-10-29T04:43:57.867Z,11.63
2022-10-29T04:44:57.856Z,11.75
2022-10-29T04:45:57.837Z,11.70
2022-10-29T04:46:57.818Z,11.60
2022-10-29T04:47:58.318Z,11.60
2022-10-29T04:48:57.846Z,11.78
2022-10-29T04:49:57.792Z,11.62
2022-10-29T04:50:57.774Z,11.72
2022-10-29T04:51:57.757Z,11.67
2022-10-29T04:52:57.749Z,11.66
2022-10-29T04:53:57.730Z,11.66
2022-10-29T04:54:57.722Z,11.53
2022-10-29T04:55:57.706Z,11.59
2022-10-29T04:56:57.691Z,11.53
2022-10-29T04:57:58.147Z,11.42
2022-10-29T04:58:57.682Z,11.56
2022-10-29T04:59:57.698Z,11.63
2022-10-29T05:00:57.701Z,11.49
2022-10-29T05:01:57.626Z,11.53
2022-10-29T05:02:58.024Z,11.51
2022-10-29T05:03:59.990Z,11.49
2022-10-29T05:04:57.579Z,11.46
2022-10-29T05:05:57.572Z,11.42
2022-10-29T05:06:57.554Z,11.56
2022-10-29T05:07:57.543Z,11.53
2022-10-29T05:08:57.533Z,11.48
2022-10-29T05:09:57.514Z,11.45
2022-10-29T05:10:57.508Z,11.51
2022-10-29T05:11:57.489Z,11.46
2022-10-29T05:12:57.744Z,11.49
2022-10-29T05:13:57.460Z,11.45
2022-10-29T05:14:57.465Z,11.41
2022-10-29T05:15:57.440Z,11.35
2022-10-29T05:16:57.480Z,11.33
2022-10-29T05:17:57.771Z,11.35
2022-10-29T05:18:57.395Z,11.39
2022-10-29T05:19:57.382Z,11.36
2022-10-29T05:20:57.363Z,11.23
2022-10-29T05:21:57.373Z,11.27
2022-10-29T05:22:57.337Z,11.20
2022-10-29T05:23:57.332Z,11.13
2022-10-29T05:24:57.308Z,11.24
2022-10-29T05:25:57.299Z,11.21
2022-10-29T05:26:57.279Z,11.19
2022-10-29T05:27:57.527Z,11.09
2022-10-29T05:28:57.253Z,11.26
2022-10-29T05:29:57.250Z,11.05
2022-10-29T05:30:57.256Z,11.19
2022-10-29T05:31:57.222Z,11.13
2022-10-29T05:32:57.639Z,11.12
2022-10-29T05:33:57.196Z,11.03
2022-10-29T05:34:57.184Z,11.06
2022-10-29T05:35:57.168Z,11.06
2022-10-29T05:36:57.154Z,11.05
2022-10-29T05:37:57.143Z,11.09
2022-10-29T05:38:57.123Z,11.05
2022-10-29T05:39:57.113Z,10.80
2022-10-29T05:40:57.091Z,10.95
2022-10-29T05:41:57.087Z,10.81
2022-10-29T05:42:57.403Z,10.90
2022-10-29T05:43:57.056Z,10.91
2022-10-29T05:44:57.041Z,10.91
2022-10-29T05:45:57.136Z,10.87
2022-10-29T05:46:57.039Z,10.88
2022-10-29T05:47:57.045Z,10.75
2022-10-29T05:48:56.990Z,10.86
2022-10-29T05:49:57.031Z,10.84
2022-10-29T05:50:56.959Z,10.87
2022-10-29T05:51:56.951Z,10.84
2022-10-29T05:52:57.210Z,10.72
2022-10-29T05:53:56.927Z,10.75
2022-10-29T05:54:56.916Z,10.72
2022-10-29T05:55:56.901Z,10.68
2022-10-29T05:56:56.890Z,10.86
2022-10-29T05:57:56.875Z,10.76
2022-10-29T05:58:56.857Z,10.70
2022-10-29T05:59:56.851Z,10.70
2022-10-29T06:00:56.830Z,10.65
2022-10-29T06:01:56.969Z,10.66
2022-10-29T06:02:57.523Z,10.66
2022-10-29T06:03:56.789Z,10.72
2022-10-29T06:04:56.785Z,10.52
2022-10-29T06:05:56.762Z,10.66
2022-10-29T06:06:56.883Z,10.76
2022-10-29T06:07:57.097Z,10.60
2022-10-29T06:08:56.719Z,10.60
2022-10-29T06:09:56.717Z,10.70
2022-10-29T06:10:56.695Z,10.57
2022-10-29T06:11:56.691Z,10.60
2022-10-29T06:12:56.669Z,10.54
2022-10-29T06:13:56.662Z,10.65
2022-10-29T06:14:56.648Z,10.66
2022-10-29T06:15:56.636Z,10.60
2022-10-29T06:16:56.618Z,10.62
2022-10-29T06:17:57.063Z,10.60
2022-10-29T06:18:56.621Z,10.73
2022-10-29T06:19:56.575Z,10.57
2022-10-29T06:20:56.561Z,10.62
2022-10-29T06:21:59.552Z,10.78
2022-10-29T06:22:56.976Z,10.81
2022-10-29T06:23:56.534Z,10.86
2022-10-29T06:24:56.509Z,10.81
2022-10-29T06:25:56.496Z,10.80
2022-10-29T06:26:56.485Z,10.73
2022-10-29T06:27:56.470Z,10.80
2022-10-29T06:28:56.453Z,10.84
2022-10-29T06:29:56.442Z,10.81
2022-10-29T06:30:56.423Z,10.75
2022-10-29T06:31:56.419Z,10.78
2022-10-29T06:32:56.733Z,10.88
2022-10-29T06:33:56.396Z,10.93
2022-10-29T06:34:56.399Z,10.87
2022-10-29T06:35:56.369Z,10.91
2022-10-29T06:36:56.351Z,11.08
2022-10-29T06:37:56.695Z,10.91
2022-10-29T06:38:56.320Z,11.05
2022-10-29T06:39:56.317Z,11.03
2022-10-29T06:40:56.300Z,11.09
2022-10-29T06:41:56.282Z,11.21
2022-10-29T06:42:56.270Z,11.11
2022-10-29T06:43:56.252Z,11.19
2022-10-29T06:44:56.237Z,11.31
2022-10-29T06:45:56.229Z,11.23
2022-10-29T06:46:56.216Z,11.13
2022-10-29T06:47:56.616Z,11.27
2022-10-29T06:48:56.185Z,11.13
2022-10-29T06:49:56.179Z,11.30
2022-10-29T06:50:56.184Z,11.33
2022-10-29T06:51:56.152Z,11.28
2022-10-29T06:52:56.324Z,11.41
2022-10-29T06:53:56.117Z,11.41
2022-10-29T06:54:56.108Z,11.39
2022-10-29T06:55:56.093Z,11.38
2022-10-29T06:56:56.076Z,11.48
2022-10-29T06:57:56.073Z,11.53
2022-10-29T06:58:56.056Z,11.54
2022-10-29T06:59:56.052Z,11.60
2022-10-29T07:01:56.121Z,11.78
2022-10-29T07:02:56.422Z,11.72
2022-10-29T07:03:55.990Z,11.74
2022-10-29T07:04:55.975Z,11.78
2022-10-29T07:05:56.030Z,11.93
2022-10-29T07:06:55.964Z,11.87
2022-10-29T07:07:56.417Z,11.98
2022-10-29T07:08:55.913Z,11.98
2022-10-29T07:09:55.911Z,12.01
2022-10-29T07:10:55.888Z,12.03
2022-10-29T07:11:55.887Z,12.00
2022-10-29T07:12:55.864Z,12.08
2022-10-29T07:13:55.858Z,11.94
2022-10-29T07:14:55.844Z,12.08
2022-10-29T07:15:55.836Z,12.08
2022-10-29T07:16:55.815Z,12.08
2022-10-29T07:17:56.132Z,12.21
2022-10-29T07:18:56.135Z,12.08
2022-10-29T07:19:55.788Z,12.19
2022-10-29T07:20:55.761Z,12.22
2022-10-29T07:21:55.746Z,12.25
2022-10-29T07:22:55.752Z,12.25
2022-10-29T07:23:55.767Z,12.26
2022-10-29T07:24:58.611Z,12.30
2022-10-29T07:25:55.715Z,12.38
2022-10-29T07:26:55.691Z,12.41
2022-10-29T07:27:56.085Z,12.41
2022-10-29T07:28:55.759Z,12.48
2022-10-29T07:29:55.653Z,12.37
2022-10-29T07:30:55.631Z,12.44
2022-10-29T07:31:55.613Z,12.44
2022-10-29T07:32:55.644Z,12.54
2022-10-29T07:33:55.784Z,12.51
2022-10-29T07:34:55.575Z,12.56
2022-10-29T07:35:55.563Z,12.52
2022-10-29T07:36:55.550Z,12.52
2022-10-29T07:37:55.917Z,12.59
2022-10-29T07:38:55.548Z,12.63
2022-10-29T07:39:55.513Z,12.62
2022-10-29T07:40:55.500Z,12.67
2022-10-29T07:41:59.105Z,12.63
2022-10-29T07:42:55.755Z,12.71
2022-10-29T07:43:55.465Z,12.69
2022-10-29T07:44:55.452Z,12.84
2022-10-29T07:45:55.431Z,12.79
2022-10-29T07:46:55.419Z,12.76
2022-10-29T07:47:59.901Z,12.71
2022-10-29T07:48:56.410Z,12.76
2022-10-29T07:49:55.373Z,12.80
2022-10-29T07:50:55.364Z,12.79
2022-10-29T07:51:55.345Z,12.98
2022-10-29T07:52:55.695Z,12.87
2022-10-29T07:53:55.322Z,12.95
2022-10-29T07:54:55.333Z,13.03
2022-10-29T07:55:55.299Z,13.03
2022-10-29T07:56:55.300Z,13.06
2022-10-29T07:57:55.570Z,13.21
2022-10-29T07:58:55.253Z,13.19
2022-10-29T07:59:55.237Z,13.21
2022-10-29T08:00:55.286Z,13.38
2022-10-29T08:01:55.295Z,13.35
2022-10-29T08:02:55.210Z,13.50
2022-10-29T08:03:55.190Z,13.47
2022-10-29T08:04:55.179Z,13.51
2022-10-29T08:05:56.715Z,13.51
2022-10-29T08:06:55.147Z,13.59
2022-10-29T08:07:55.634Z,13.53
2022-10-29T08:08:55.124Z,13.76
2022-10-29T08:09:55.102Z,13.98
2022-10-29T08:10:55.115Z,14.29
2022-10-29T08:11:55.071Z,14.57
2022-10-29T08:12:55.574Z,15.16
2022-10-29T08:13:55.053Z,15.71
2022-10-29T08:14:55.037Z,16.22
2022-10-29T08:15:55.020Z,16.60
2022-10-29T08:16:55.021Z,16.75
2022-10-29T08:17:54.998Z,16.77
2022-10-29T08:18:54.988Z,16.99
2022-10-29T08:19:54.978Z,17.20
2022-10-29T08:20:54.966Z,17.25
2022-10-29T08:21:54.941Z,17.22
2022-10-29T08:22:55.549Z,17.09
2022-10-29T08:23:54.916Z,16.85
2022-10-29T08:24:54.906Z,16.66
2022-10-29T08:25:54.886Z,16.60
2022-10-29T08:26:54.896Z,16.25
2022-10-29T08:28:54.852Z,16.67
2022-10-29T08:29:54.836Z,16.82
2022-10-29T08:30:54.827Z,16.81
2022-10-29T08:31:54.810Z,16.80
2022-10-29T08:32:55.303Z,17.18
2022-10-29T08:33:54.779Z,17.40
2022-10-29T08:34:54.769Z,17.65
2022-10-29T08:35:54.754Z,17.63
2022-10-29T08:36:54.741Z,17.76
2022-10-29T08:37:54.723Z,17.49
2022-10-29T08:38:54.720Z,17.25
2022-10-29T08:39:54.705Z,17.18
2022-10-29T08:40:54.705Z,17.09
2022-10-29T08:41:54.678Z,17.06
2022-10-29T08:42:55.131Z,17.09
2022-10-29T08:43:54.737Z,17.18
2022-10-29T08:44:54.640Z,17.42
2022-10-29T08:45:54.624Z,17.39
2022-10-29T08:46:54.617Z,17.54
2022-10-29T08:47:55.040Z,17.39
2022-10-29T08:48:54.598Z,17.39
2022-10-29T08:49:54.576Z,17.40
2022-10-29T08:50:54.557Z,17.40
2022-10-29T08:51:54.541Z,17.49
2022-10-29T08:53:19.405Z,17.40
2022-10-29T08:54:25.012Z,17.53
2022-10-29T08:54:55.527Z,17.54
2022-10-29T08:55:54.485Z,17.49
2022-10-29T08:56:54.476Z,17.62
2022-10-29T08:57:54.796Z,17.63
2022-10-29T08:58:54.471Z,17.63
2022-10-29T08:59:54.568Z,17.65
2022-10-29T09:00:54.462Z,17.60
2022-10-29T09:01:54.561Z,17.66
2022-10-29T09:02:54.854Z,17.63
2022-10-29T09:03:54.386Z,17.57
2022-10-29T09:04:54.373Z,17.53
2022-10-29T09:05:54.358Z,17.42
2022-10-29T09:06:54.346Z,17.38
2022-10-29T09:07:56.150Z,17.36
2022-10-29T09:08:54.387Z,17.28
2022-10-29T09:09:54.307Z,17.28
2022-10-29T09:10:54.294Z,17.27
2022-10-29T09:11:54.302Z,17.36
2022-10-29T09:12:54.745Z,17.20
2022-10-29T09:13:54.247Z,17.25
2022-10-29T09:14:54.307Z,17.27
2022-10-29T09:15:57.566Z,17.17
2022-10-29T09:16:54.285Z,17.36
2022-10-29T09:17:54.737Z,17.47
2022-10-29T09:18:54.185Z,17.57
2022-10-29T09:19:54.231Z,17.60
2022-10-29T09:20:54.224Z,17.66
2022-10-29T09:21:54.148Z,17.51
2022-10-29T09:22:54.139Z,17.57
2022-10-29T09:23:54.120Z,17.60
2022-10-29T09:24:54.238Z,17.53
2022-10-29T09:25:54.093Z,17.55
2022-10-29T09:26:54.083Z,17.53
2022-10-29T09:27:54.511Z,17.51
2022-10-29T09:28:54.058Z,17.54
2022-10-29T09:29:54.036Z,17.68
2022-10-29T09:30:54.049Z,17.79
2022-10-29T09:31:54.006Z,17.79
2022-10-29T09:32:54.191Z,17.91
2022-10-29T09:33:56.509Z,17.95
2022-10-29T09:34:53.974Z,18.04
2022-10-29T09:35:53.997Z,17.89
2022-10-29T09:36:53.947Z,18.07
2022-10-29T09:37:54.188Z,17.95
2022-10-29T09:38:53.921Z,17.83
2022-10-29T09:39:53.935Z,17.84
2022-10-29T09:40:53.938Z,17.79
2022-10-29T09:41:53.877Z,17.62
2022-10-29T09:42:53.870Z,17.76
2022-10-29T09:43:53.850Z,17.68
2022-10-29T09:44:53.960Z,17.68
2022-10-29T09:45:53.829Z,17.74
2022-10-29T09:46:53.839Z,17.79
2022-10-29T09:47:54.190Z,17.96
2022-10-29T09:48:53.826Z,18.02
2022-10-29T09:49:53.767Z,18.13
2022-10-29T09:50:53.869Z,18.11
2022-10-29T09:51:53.773Z,18.23
2022-10-29T09:52:54.135Z,18.25
2022-10-29T09:53:53.716Z,18.20
2022-10-29T09:54:53.718Z,18.28
2022-10-29T09:55:53.885Z,18.35
2022-10-29T09:56:56.066Z,18.34
2022-10-29T09:57:53.666Z,18.29
2022-10-29T09:58:53.659Z,18.34
2022-10-29T09:59:53.640Z,18.34
2022-10-29T10:00:53.637Z,18.36
2022-10-29T10:01:53.744Z,18.34
2022-10-29T10:02:54.111Z,18.51
2022-10-29T10:03:53.622Z,18.53
2022-10-29T10:04:53.573Z,18.56
2022-10-29T10:05:53.559Z,18.57
2022-10-29T10:06:53.546Z,18.53
2022-10-29T10:07:53.725Z,18.68
2022-10-29T10:08:53.516Z,18.74
2022-10-29T10:09:53.511Z,18.87
2022-10-29T10:10:53.494Z,18.89
2022-10-29T10:11:53.484Z,18.91
2022-10-29T10:12:53.466Z,18.94
2022-10-29T10:13:53.455Z,19.16
2022-10-29T10:14:53.445Z,19.24
2022-10-29T10:15:53.425Z,19.21
2022-10-29T10:16:53.417Z,19.21
2022-10-29T10:17:53.499Z,19.25
2022-10-29T10:18:53.413Z,19.39
2022-10-29T10:19:53.370Z,19.39
2022-10-29T10:20:53.366Z,19.53
2022-10-29T10:21:53.343Z,19.72
2022-10-29T10:22:53.515Z,19.86
2022-10-29T10:23:53.320Z,20.35
2022-10-29T10:24:53.307Z,20.81
2022-10-29T10:25:53.381Z,21.03
2022-10-29T10:26:53.284Z,21.67
2022-10-29T10:27:53.632Z,21.93
2022-10-29T10:28:53.262Z,22.14
2022-10-29T10:29:53.245Z,22.17
2022-10-29T10:30:53.232Z,21.79
2022-10-29T10:31:53.216Z,21.68
2022-10-29T10:32:53.543Z,21.79
2022-10-29T10:33:53.184Z,22.02
2022-10-29T10:34:53.200Z,22.23
2022-10-29T10:35:53.159Z,22.56
2022-10-29T10:36:53.172Z,22.85
2022-10-29T10:37:53.277Z,23.12
2022-10-29T10:38:53.127Z,23.14
2022-10-29T10:39:53.106Z,22.91
2022-10-29T10:40:53.102Z,22.74
2022-10-29T10:41:53.083Z,22.76
2022-10-29T10:42:53.070Z,22.67
2022-10-29T10:43:53.053Z,22.41
2022-10-29T10:44:53.050Z,22.23
2022-10-29T10:45:53.031Z,22.19
2022-10-29T10:46:53.022Z,22.14
2022-10-29T10:47:52.999Z,22.09
2022-10-29T10:48:52.996Z,22.15
2022-10-29T10:49:52.976Z,22.61
2022-10-29T10:50:52.987Z,22.81
2022-10-29T10:51:52.952Z,22.94
2022-10-29T10:52:53.141Z,23.12
2022-10-29T10:53:53.048Z,23.29
2022-10-29T10:54:52.917Z,23.16
2022-10-29T10:55:52.906Z,23.04
2022-10-29T10:56:52.886Z,23.16
2022-10-29T10:57:52.876Z,23.04
2022-10-29T10:58:52.879Z,23.01
2022-10-29T10:59:52.849Z,22.81
2022-10-29T11:00:52.870Z,22.81
2022-10-29T11:01:52.989Z,22.84
2022-10-29T11:02:52.874Z,22.88
2022-10-29T11:03:52.791Z,23.00
2022-10-29T11:04:52.785Z,23.06
2022-10-29T11:05:52.766Z,23.07
2022-10-29T11:06:52.779Z,23.16
2022-10-29T11:07:52.910Z,23.29
2022-10-29T11:08:52.736Z,23.60
2022-10-29T11:09:52.717Z,23.86
2022-10-29T11:10:52.717Z,23.90
2022-10-29T11:11:57.936Z,24.05
2022-10-29T11:12:53.702Z,23.92
2022-10-29T11:13:52.661Z,23.79
2022-10-29T11:14:52.678Z,23.82
2022-10-29T11:15:52.634Z,23.96
2022-10-29T11:16:52.635Z,24.29
2022-10-29T11:17:54.357Z,24.84
2022-10-29T11:18:52.602Z,25.17
2022-10-29T11:19:52.589Z,25.49
2022-10-29T11:20:52.581Z,26.01
2022-10-29T11:21:52.557Z,26.57
2022-10-29T11:22:52.566Z,26.68
2022-10-29T11:23:52.532Z,27.02
2022-10-29T11:24:52.527Z,27.43
2022-10-29T11:25:52.510Z,27.77
2022-10-29T11:26:52.502Z,28.14
2022-10-29T11:27:52.483Z,28.27
2022-10-29T11:28:52.477Z,28.36
2022-10-29T11:29:52.459Z,28.94
2022-10-29T11:30:52.450Z,29.37
2022-10-29T11:31:52.430Z,29.47
2022-10-29T11:32:52.428Z,29.47
2022-10-29T11:33:52.409Z,29.47
2022-10-29T11:34:52.395Z,29.85
2022-10-29T11:35:54.007Z,29.84
2022-10-29T11:36:52.376Z,29.91
2022-10-29T11:37:52.360Z,29.74
2022-10-29T11:38:52.374Z,29.71
2022-10-29T11:39:52.333Z,29.89
2022-10-29T11:40:52.327Z,30.22
2022-10-29T11:41:52.314Z,30.63
2022-10-29T11:42:52.290Z,30.18
2022-10-29T11:43:52.290Z,30.01
2022-10-29T11:44:52.269Z,30.29
2022-10-29T11:45:52.263Z,30.34
2022-10-29T11:46:52.239Z,30.10
2022-10-29T11:47:52.265Z,30.79
2022-10-29T11:48:52.218Z,31.41
2022-10-29T11:49:52.221Z,31.78
2022-10-29T11:50:52.191Z,32.03
2022-10-29T11:51:52.243Z,32.12
2022-10-29T11:52:52.174Z,32.31
2022-10-29T11:53:52.158Z,32.46
2022-10-29T11:54:52.163Z,32.61
2022-10-29T11:55:52.134Z,32.78
2022-10-29T11:56:52.118Z,32.22
2022-10-29T11:57:52.115Z,32.13
2022-10-29T11:58:52.091Z,32.25
2022-10-29T11:59:52.081Z,32.32
2022-10-29T12:00:52.071Z,31.88
2022-10-29T12:01:52.158Z,31.34
2022-10-29T12:05:25.030Z,30.11
2022-10-29T12:06:19.019Z,30.48
2022-10-29T12:07:19.012Z,30.72
2022-10-29T12:08:18.995Z,30.88
2022-10-29T12:09:18.971Z,30.53
2022-10-29T12:10:18.991Z,30.68
2022-10-29T12:11:18.948Z,31.07
2022-10-29T12:12:18.939Z,31.38
2022-10-29T12:13:18.924Z,31.35
2022-10-29T12:14:18.916Z,31.37
2022-10-29T12:15:18.910Z,31.28
2022-10-29T12:16:18.890Z,30.81
2022-10-29T12:17:18.883Z,30.44
2022-10-29T12:18:18.935Z,30.16
2022-10-29T12:19:18.852Z,29.95
2022-10-29T12:20:22.126Z,30.03
2022-10-29T12:21:19.852Z,29.79
2022-10-29T12:22:18.814Z,29.71
2022-10-29T12:23:19.306Z,29.99
2022-10-29T12:24:19.047Z,30.37
2022-10-29T12:25:18.782Z,30.48
2022-10-29T12:26:18.793Z,30.57
2022-10-29T12:27:18.758Z,30.29
2022-10-29T12:28:18.749Z,30.18
2022-10-29T12:29:18.733Z,29.89
2022-10-29T12:30:18.725Z,29.88
2022-10-29T12:31:18.710Z,29.91
2022-10-29T12:32:18.701Z,29.48
2022-10-29T12:33:18.683Z,29.12
2022-10-29T12:34:18.675Z,28.67
2022-10-29T12:35:18.662Z,28.18
2022-10-29T12:36:18.645Z,27.71
2022-10-29T12:37:18.630Z,27.35
2022-10-29T12:38:18.620Z,27.06
2022-10-29T12:39:18.607Z,26.86
2022-10-29T12:40:18.599Z,26.64
2022-10-29T12:41:18.585Z,26.73
2022-10-29T12:42:18.683Z,26.94
2022-10-29T12:43:18.563Z,27.42
2022-10-29T12:44:18.555Z,27.87
2022-10-29T12:45:18.538Z,28.23
2022-10-29T12:46:20.836Z,28.70
2022-10-29T12:47:18.515Z,29.12
2022-10-29T12:48:18.499Z,29.60
2022-10-29T12:49:18.490Z,29.99
2022-10-29T12:50:18.473Z,29.85
2022-10-29T12:51:18.461Z,29.76
2022-10-29T12:52:18.447Z,29.39
2022-10-29T12:53:18.445Z,29.05
2022-10-29T12:54:18.423Z,28.79
2022-10-29T12:55:18.415Z,28.60
2022-10-29T12:56:18.402Z,28.48
2022-10-29T12:57:18.393Z,28.38
2022-10-29T12:58:18.400Z,28.43
2022-10-29T12:59:18.374Z,28.43
2022-10-29T13:00:18.348Z,28.21
2022-10-29T13:01:18.531Z,28.01
2022-10-29T13:02:18.459Z,27.65
2022-10-29T13:03:18.374Z,27.31